Cape Lambert — V7TC9 — position and weather

sailwx.info

Track history (hours):
 
Tides and Currents Weather Stations Pressure Air Temp Water Temp Dewpoint Dewpoint Depression Visibility Wind Speed Wind Dir Waves Ship Positions

Cape Lambert

Last reported at 2014-Jun-22 16:07 UTC. Time now 2014-Jul-29 10:48 UTC.
Position N 50°09' W 002°08'.
Warning: this ship's position is 36 days out of date.

Length 290 m; draft 11 m.

Type: Cargo ship. MMSI: 538003781.

Date/timePositionNaut miles runAvg speedWind from/ knotsBaromVisibWave heightAir tempDewpointWater temp
2014-Jun-22 16:07N 50°09' W 002°08'5 8.1
2014-Jun-22 15:33N 50°10' W 002°01'8 8.4
2014-Jun-22 14:33N 50°13' W 001°49'9 9.2
2014-Jun-22 13:33N 50°15' W 001°35'1010.5
2014-Jun-22 12:34N 50°18' W 001°19'1212.1
2014-Jun-22 11:34N 50°21' W 001°01'1312.9
2014-Jun-22 10:34N 50°24' W 000°41'1212.4
2014-Jun-22 09:34N 50°27' W 000°23'1211.7
2014-Jun-22 08:34N 50°30' W 000°05'1111.1
2014-Jun-22 07:34N 50°33' E 000°12'1010.3
2014-Jun-22 06:34N 50°36' E 000°28'10 9.8
2014-Jun-22 05:34N 50°41' E 000°41'10 9.8
2014-Jun-22 04:34N 50°46' E 000°54'1010.3
2014-Jun-22 03:34N 50°52' E 001°07'1211.7
2014-Jun-22 02:34N 51°00' E 001°20'1212.4
2014-Jun-22 01:34N 51°08' E 001°36'1111.4
2014-Jun-22 00:34N 51°17' E 001°48'1010.2
2014-Jun-21 23:34N 51°26' E 001°55'18 9.0
2014-Jun-21 21:33N 51°40' E 002°14'9 8.8
2014-Jun-21 20:33N 51°46' E 002°24'9 8.9
2014-Jun-21 19:33N 51°53' E 002°33'10 9.7
2014-Jun-21 18:33N 52°02' E 002°36'8710.6
2014-Jun-21 10:22N 53°23' E 003°30'20 9.8
2014-Jun-21 08:18N 53°42' E 003°40'810.2
2014-Jun-21 07:33N 53°47' E 003°50'118 9.0
2014-Jun-20 18:33N 54°12' E 007°06'9 8.6
2014-Jun-20 17:33N 54°11' E 007°20'8 7.5
2014-Jun-20 16:33N 54°04' E 007°25'2 2.1
2014-Jun-20 15:33N 54°03' E 007°28'0 0.0
2014-Jun-20 14:33N 54°03' E 007°28'0 0.0
2014-Jun-20 13:33N 54°03' E 007°28'0 0.0
2014-Jun-20 12:27N 54°03' E 007°28'0 0.0
2014-Jun-20 11:33N 54°03' E 007°28'0 0.0
2014-Jun-20 10:27N 54°03' E 007°28'0 0.1
2014-Jun-20 09:27N 54°03' E 007°28'0 0.0
2014-Jun-20 08:33N 54°03' E 007°28'0 0.0
2014-Jun-20 07:33N 54°03' E 007°28'0 0.1
2014-Jun-20 06:33N 54°03' E 007°28'0 0.0
2014-Jun-20 05:33N 54°03' E 007°28'0 0.0
2014-Jun-20 04:24N 54°03' E 007°28'0 0.0
2014-Jun-20 03:33N 54°03' E 007°28'0 0.0
2014-Jun-20 02:33N 54°03' E 007°28'0 0.0
2014-Jun-20 01:30N 54°03' E 007°28'0 0.0
2014-Jun-20 00:33N 54°03' E 007°28'0 0.0
2014-Jun-19 23:33N 54°03' E 007°28'0 0.0
2014-Jun-19 22:33N 54°03' E 007°28'0 0.0
2014-Jun-19 21:33N 54°03' E 007°28'0 0.0
2014-Jun-19 20:33N 54°03' E 007°28'0 0.0
2014-Jun-19 19:33N 54°03' E 007°28'0 0.0
2014-Jun-19 18:33N 54°03' E 007°28'0 0.1
2014-Jun-19 17:33N 54°03' E 007°28'9 9.0
2014-Jun-19 16:33N 54°03' E 007°43'1211.9
2014-Jun-19 15:33N 54°05' E 008°03'9 9.2
2014-Jun-19 14:33N 54°00' E 008°16'1010.4
2014-Jun-19 13:33N 53°58' E 008°34'1010.0
2014-Jun-19 12:33N 53°51' E 008°46'1313.1
2014-Jun-19 11:33N 53°53' E 009°08'1111.4
2014-Jun-19 10:33N 53°46' E 009°24'1414.1
2014-Jun-19 09:34N 53°35' E 009°37'1010.4
2014-Jun-19 08:33N 53°32' E 009°55'2 1.8
2014-Jun-19 07:33N 53°31' E 009°56'0 0.1
2014-Jun-19 06:32N 53°31' E 009°56'0 0.0
2014-Jun-19 05:32N 53°31' E 009°56'0 0.0
2014-Jun-19 04:33N 53°31' E 009°56'0 0.0
2014-Jun-19 03:32N 53°31' E 009°56'0 0.0
2014-Jun-19 02:32N 53°31' E 009°56'0 0.0
2014-Jun-19 01:32N 53°31' E 009°56'0 0.0
2014-Jun-19 00:33N 53°31' E 009°56'0 0.0
2014-Jun-18 23:32N 53°31' E 009°56'0 0.0
2014-Jun-18 22:32N 53°31' E 009°56'0 0.0
2014-Jun-18 21:29N 53°31' E 009°56'0 0.0
2014-Jun-18 20:32N 53°31' E 009°56'0 0.0
2014-Jun-18 19:33N 53°31' E 009°56'0 0.0
2014-Jun-18 18:32N 53°31' E 009°56'0 0.0
2014-Jun-18 17:32N 53°31' E 009°56'0 0.0
2014-Jun-18 16:32N 53°31' E 009°56'0 0.0
2014-Jun-18 15:32N 53°31' E 009°56'0 0.0
2014-Jun-18 14:32N 53°31' E 009°56'0 0.0
2014-Jun-18 13:32N 53°31' E 009°56'0 0.0
2014-Jun-18 12:33N 53°31' E 009°56'0 0.0
2014-Jun-18 11:29N 53°31' E 009°56'0 0.0
2014-Jun-18 10:32N 53°31' E 009°56'0 0.0
2014-Jun-18 09:32N 53°31' E 009°56'0 0.0
2014-Jun-18 08:32N 53°31' E 009°56'0 0.0
2014-Jun-18 07:32N 53°31' E 009°56'0 0.0
2014-Jun-18 06:32N 53°31' E 009°56'0 0.0
2014-Jun-18 05:32N 53°31' E 009°56'0 0.0
2014-Jun-18 04:32N 53°31' E 009°56'0 0.0
2014-Jun-18 03:32N 53°31' E 009°56'0 0.0
2014-Jun-18 02:32N 53°31' E 009°56'0 0.0
2014-Jun-18 01:32N 53°31' E 009°56'0 0.0
2014-Jun-18 00:32N 53°31' E 009°56'0 0.0
2014-Jun-17 23:32N 53°31' E 009°56'0 0.0
2014-Jun-17 22:32N 53°31' E 009°56'0 0.0
2014-Jun-17 21:33N 53°31' E 009°56'0 0.0
2014-Jun-17 20:32N 53°31' E 009°56'0 0.0
2014-Jun-17 19:32N 53°31' E 009°56'0 0.0
2014-Jun-17 18:32N 53°31' E 009°56'0 0.0
2014-Jun-17 17:32N 53°31' E 009°56'0 0.0
2014-Jun-17 16:32N 53°31' E 009°56'0 0.0
2014-Jun-17 15:32N 53°31' E 009°56'0 0.0
2014-Jun-17 14:32N 53°31' E 009°56'0 0.0
2014-Jun-17 13:32N 53°31' E 009°56'0 0.0
2014-Jun-17 12:32N 53°31' E 009°56'0 0.0
2014-Jun-17 11:32N 53°31' E 009°56'0 0.0
2014-Jun-17 10:32N 53°31' E 009°56'0 0.0
2014-Jun-17 09:32N 53°31' E 009°56'0 0.0
2014-Jun-17 08:32N 53°31' E 009°56'0 0.0
2014-Jun-17 07:32N 53°31' E 009°56'0 0.0
2014-Jun-17 06:32N 53°31' E 009°56'0 0.0
2014-Jun-17 05:32N 53°31' E 009°56'0 0.0
2014-Jun-17 04:29N 53°31' E 009°56'0 0.0
2014-Jun-17 03:32N 53°31' E 009°56'0 0.0
2014-Jun-17 02:32N 53°31' E 009°56'0 0.0
2014-Jun-17 01:32N 53°31' E 009°56'0 0.0
2014-Jun-17 00:32N 53°31' E 009°56'0 0.0
2014-Jun-16 23:32N 53°31' E 009°56'0 0.0
2014-Jun-16 22:32N 53°31' E 009°56'0 0.0
2014-Jun-16 21:32N 53°31' E 009°56'0 0.0
2014-Jun-16 20:32N 53°31' E 009°56'0 0.0
2014-Jun-16 19:32N 53°31' E 009°56'0 0.0
2014-Jun-16 18:32N 53°31' E 009°56'0 0.0
2014-Jun-16 17:34N 53°31' E 009°56'3 3.2
2014-Jun-16 16:34N 53°33' E 009°51'8 8.2
2014-Jun-16 15:34N 53°35' E 009°38'1110.8
2014-Jun-16 14:33N 53°43' E 009°28'1312.9
2014-Jun-16 13:33N 53°53' E 009°13'10 9.6
2014-Jun-16 12:33N 53°51' E 008°57'8 8.0
2014-Jun-16 11:33N 53°52' E 008°43'1212.3
2014-Jun-16 10:34N 53°59' E 008°26'1414.1
2014-Jun-16 09:33N 54°00' E 008°02'9 9.3
2014-Jun-16 08:34N 54°05' E 007°48'2 1.2
2014-Jun-16 07:07N 54°05' E 007°45'0 0.1
2014-Jun-16 06:28N 54°05' E 007°45'0 0.1
2014-Jun-16 05:31N 54°05' E 007°45'0 0.0
2014-Jun-16 04:28N 54°05' E 007°45'0 0.2
2014-Jun-16 03:28N 54°05' E 007°46'0 0.1
2014-Jun-16 02:31N 54°05' E 007°46'0 0.0
2014-Jun-16 01:28N 54°05' E 007°46'0 0.0
2014-Jun-16 00:25N 54°05' E 007°46'0 0.0
2014-Jun-15 23:31N 54°05' E 007°46'0 0.0
2014-Jun-15 22:31N 54°05' E 007°46'0 0.0
2014-Jun-15 21:28N 54°05' E 007°46'0 0.2
2014-Jun-15 20:31N 54°05' E 007°45'0 0.2
2014-Jun-15 19:31N 54°05' E 007°45'0 0.0
2014-Jun-15 18:31N 54°05' E 007°45'0 0.0
2014-Jun-15 17:31N 54°05' E 007°45'0 0.0
2014-Jun-15 16:31N 54°05' E 007°45'0 0.0
2014-Jun-15 15:31N 54°05' E 007°45'0 0.1
2014-Jun-15 14:31N 54°05' E 007°45'0 0.2
2014-Jun-15 13:31N 54°05' E 007°46'0 0.1
2014-Jun-15 12:22N 54°05' E 007°46'0 0.0
2014-Jun-15 11:28N 54°05' E 007°46'0 0.1
2014-Jun-15 10:28N 54°05' E 007°46'3 3.9
2014-Jun-15 09:33N 54°07' E 007°41'10 9.6
2014-Jun-15 08:33N 54°09' E 007°25'1010.0
2014-Jun-15 07:33N 54°09' E 007°08'71 8.7
2014-Jun-14 23:26N 54°03' E 005°07'48 9.0
2014-Jun-14 18:08N 53°36' E 003°59'6 9.3
2014-Jun-14 17:32N 53°33' E 003°52'30 9.4
2014-Jun-14 14:19N 53°07' E 003°27'90 8.3
2014-Jun-14 03:33N 51°44' E 002°31'1111.0
2014-Jun-14 02:31N 51°35' E 002°20'1111.3
2014-Jun-14 01:34N 51°26' E 002°09'1111.1
2014-Jun-14 00:33N 51°19' E 001°56'1211.9
2014-Jun-13 23:33N 51°09' E 001°44'1211.6
2014-Jun-13 22:33N 51°00' E 001°33'1010.0
2014-Jun-13 21:34N 50°51' E 001°25'9 8.9
2014-Jun-13 20:34N 50°43' E 001°20'10 8.8
2014-Jun-13 19:25N 50°36' E 001°09'7 8.6
2014-Jun-13 18:33N 50°31' E 001°00'8 8.4
2014-Jun-13 17:32N 50°28' E 000°48'8 8.1
2014-Jun-13 16:33N 50°26' E 000°36'8 8.0
2014-Jun-13 15:33N 50°23' E 000°24'8 7.8
2014-Jun-13 14:33N 50°20' E 000°13'8 7.9
2014-Jun-13 13:30N 50°18' E 000°00'8 8.3
2014-Jun-13 12:33N 50°16' W 000°12'  
Track history (hours):
 
Tides and Currents Weather Stations Pressure Air Temp Water Temp Dewpoint Dewpoint Depression Visibility Wind Speed Wind Dir Waves Ship Positions

Cape Lambert

Last reported at 2014-Jun-22 16:07 UTC. Time now 2014-Jul-29 10:48 UTC.
Position N 50°09' W 002°08'.
Warning: this ship's position is 36 days out of date.

Length 290 m; draft 11 m.

Type: Cargo ship. MMSI: 538003781.

Date/timePositionNaut miles runAvg speedWind from/ knotsBaromVisibWave heightAir tempDewpointWater temp
2014-Jun-22 16:07N 50°09' W 002°08'5 8.1
2014-Jun-22 15:33N 50°10' W 002°01'8 8.4
2014-Jun-22 14:33N 50°13' W 001°49'9 9.2
2014-Jun-22 13:33N 50°15' W 001°35'1010.5
2014-Jun-22 12:34N 50°18' W 001°19'1212.1
2014-Jun-22 11:34N 50°21' W 001°01'1312.9
2014-Jun-22 10:34N 50°24' W 000°41'1212.4
2014-Jun-22 09:34N 50°27' W 000°23'1211.7
2014-Jun-22 08:34N 50°30' W 000°05'1111.1
2014-Jun-22 07:34N 50°33' E 000°12'1010.3
2014-Jun-22 06:34N 50°36' E 000°28'10 9.8
2014-Jun-22 05:34N 50°41' E 000°41'10 9.8
2014-Jun-22 04:34N 50°46' E 000°54'1010.3
2014-Jun-22 03:34N 50°52' E 001°07'1211.7
2014-Jun-22 02:34N 51°00' E 001°20'1212.4
2014-Jun-22 01:34N 51°08' E 001°36'1111.4
2014-Jun-22 00:34N 51°17' E 001°48'1010.2
2014-Jun-21 23:34N 51°26' E 001°55'18 9.0
2014-Jun-21 21:33N 51°40' E 002°14'9 8.8
2014-Jun-21 20:33N 51°46' E 002°24'9 8.9
2014-Jun-21 19:33N 51°53' E 002°33'10 9.7
2014-Jun-21 18:33N 52°02' E 002°36'8710.6
2014-Jun-21 10:22N 53°23' E 003°30'20 9.8
2014-Jun-21 08:18N 53°42' E 003°40'810.2
2014-Jun-21 07:33N 53°47' E 003°50'118 9.0
2014-Jun-20 18:33N 54°12' E 007°06'9 8.6
2014-Jun-20 17:33N 54°11' E 007°20'8 7.5
2014-Jun-20 16:33N 54°04' E 007°25'2 2.1
2014-Jun-20 15:33N 54°03' E 007°28'0 0.0
2014-Jun-20 14:33N 54°03' E 007°28'0 0.0
2014-Jun-20 13:33N 54°03' E 007°28'0 0.0
2014-Jun-20 12:27N 54°03' E 007°28'0 0.0
2014-Jun-20 11:33N 54°03' E 007°28'0 0.0
2014-Jun-20 10:27N 54°03' E 007°28'0 0.1
2014-Jun-20 09:27N 54°03' E 007°28'0 0.0
2014-Jun-20 08:33N 54°03' E 007°28'0 0.0
2014-Jun-20 07:33N 54°03' E 007°28'0 0.1
2014-Jun-20 06:33N 54°03' E 007°28'0 0.0
2014-Jun-20 05:33N 54°03' E 007°28'0 0.0
2014-Jun-20 04:24N 54°03' E 007°28'0 0.0
2014-Jun-20 03:33N 54°03' E 007°28'0 0.0
2014-Jun-20 02:33N 54°03' E 007°28'0 0.0
2014-Jun-20 01:30N 54°03' E 007°28'0 0.0
2014-Jun-20 00:33N 54°03' E 007°28'0 0.0
2014-Jun-19 23:33N 54°03' E 007°28'0 0.0
2014-Jun-19 22:33N 54°03' E 007°28'0 0.0
2014-Jun-19 21:33N 54°03' E 007°28'0 0.0
2014-Jun-19 20:33N 54°03' E 007°28'0 0.0
2014-Jun-19 19:33N 54°03' E 007°28'0 0.0
2014-Jun-19 18:33N 54°03' E 007°28'0 0.1
2014-Jun-19 17:33N 54°03' E 007°28'9 9.0
2014-Jun-19 16:33N 54°03' E 007°43'1211.9
2014-Jun-19 15:33N 54°05' E 008°03'9 9.2
2014-Jun-19 14:33N 54°00' E 008°16'1010.4
2014-Jun-19 13:33N 53°58' E 008°34'1010.0
2014-Jun-19 12:33N 53°51' E 008°46'1313.1
2014-Jun-19 11:33N 53°53' E 009°08'1111.4
2014-Jun-19 10:33N 53°46' E 009°24'1414.1
2014-Jun-19 09:34N 53°35' E 009°37'1010.4
2014-Jun-19 08:33N 53°32' E 009°55'2 1.8
2014-Jun-19 07:33N 53°31' E 009°56'0 0.1
2014-Jun-19 06:32N 53°31' E 009°56'0 0.0
2014-Jun-19 05:32N 53°31' E 009°56'0 0.0
2014-Jun-19 04:33N 53°31' E 009°56'0 0.0
2014-Jun-19 03:32N 53°31' E 009°56'0 0.0
2014-Jun-19 02:32N 53°31' E 009°56'0 0.0
2014-Jun-19 01:32N 53°31' E 009°56'0 0.0
2014-Jun-19 00:33N 53°31' E 009°56'0 0.0
2014-Jun-18 23:32N 53°31' E 009°56'0 0.0
2014-Jun-18 22:32N 53°31' E 009°56'0 0.0
2014-Jun-18 21:29N 53°31' E 009°56'0 0.0
2014-Jun-18 20:32N 53°31' E 009°56'0 0.0
2014-Jun-18 19:33N 53°31' E 009°56'0 0.0
2014-Jun-18 18:32N 53°31' E 009°56'0 0.0
2014-Jun-18 17:32N 53°31' E 009°56'0 0.0
2014-Jun-18 16:32N 53°31' E 009°56'0 0.0
2014-Jun-18 15:32N 53°31' E 009°56'0 0.0
2014-Jun-18 14:32N 53°31' E 009°56'0 0.0
2014-Jun-18 13:32N 53°31' E 009°56'0 0.0
2014-Jun-18 12:33N 53°31' E 009°56'0 0.0
2014-Jun-18 11:29N 53°31' E 009°56'0 0.0
2014-Jun-18 10:32N 53°31' E 009°56'0 0.0
2014-Jun-18 09:32N 53°31' E 009°56'0 0.0
2014-Jun-18 08:32N 53°31' E 009°56'0 0.0
2014-Jun-18 07:32N 53°31' E 009°56'0 0.0
2014-Jun-18 06:32N 53°31' E 009°56'0 0.0
2014-Jun-18 05:32N 53°31' E 009°56'0 0.0
2014-Jun-18 04:32N 53°31' E 009°56'0 0.0
2014-Jun-18 03:32N 53°31' E 009°56'0 0.0
2014-Jun-18 02:32N 53°31' E 009°56'0 0.0
2014-Jun-18 01:32N 53°31' E 009°56'0 0.0
2014-Jun-18 00:32N 53°31' E 009°56'0 0.0
2014-Jun-17 23:32N 53°31' E 009°56'0 0.0
2014-Jun-17 22:32N 53°31' E 009°56'0 0.0
2014-Jun-17 21:33N 53°31' E 009°56'0 0.0
2014-Jun-17 20:32N 53°31' E 009°56'0 0.0
2014-Jun-17 19:32N 53°31' E 009°56'0 0.0
2014-Jun-17 18:32N 53°31' E 009°56'0 0.0
2014-Jun-17 17:32N 53°31' E 009°56'0 0.0
2014-Jun-17 16:32N 53°31' E 009°56'0 0.0
2014-Jun-17 15:32N 53°31' E 009°56'0 0.0
2014-Jun-17 14:32N 53°31' E 009°56'0 0.0
2014-Jun-17 13:32N 53°31' E 009°56'0 0.0
2014-Jun-17 12:32N 53°31' E 009°56'0 0.0
2014-Jun-17 11:32N 53°31' E 009°56'0 0.0
2014-Jun-17 10:32N 53°31' E 009°56'0 0.0
2014-Jun-17 09:32N 53°31' E 009°56'0 0.0
2014-Jun-17 08:32N 53°31' E 009°56'0 0.0
2014-Jun-17 07:32N 53°31' E 009°56'0 0.0
2014-Jun-17 06:32N 53°31' E 009°56'0 0.0
2014-Jun-17 05:32N 53°31' E 009°56'0 0.0
2014-Jun-17 04:29N 53°31' E 009°56'0 0.0
2014-Jun-17 03:32N 53°31' E 009°56'0 0.0
2014-Jun-17 02:32N 53°31' E 009°56'0 0.0
2014-Jun-17 01:32N 53°31' E 009°56'0 0.0
2014-Jun-17 00:32N 53°31' E 009°56'0 0.0
2014-Jun-16 23:32N 53°31' E 009°56'0 0.0
2014-Jun-16 22:32N 53°31' E 009°56'0 0.0
2014-Jun-16 21:32N 53°31' E 009°56'0 0.0
2014-Jun-16 20:32N 53°31' E 009°56'0 0.0
2014-Jun-16 19:32N 53°31' E 009°56'0 0.0
2014-Jun-16 18:32N 53°31' E 009°56'0 0.0
2014-Jun-16 17:34N 53°31' E 009°56'3 3.2
2014-Jun-16 16:34N 53°33' E 009°51'8 8.2
2014-Jun-16 15:34N 53°35' E 009°38'1110.8
2014-Jun-16 14:33N 53°43' E 009°28'1312.9
2014-Jun-16 13:33N 53°53' E 009°13'10 9.6
2014-Jun-16 12:33N 53°51' E 008°57'8 8.0
2014-Jun-16 11:33N 53°52' E 008°43'1212.3
2014-Jun-16 10:34N 53°59' E 008°26'1414.1
2014-Jun-16 09:33N 54°00' E 008°02'9 9.3
2014-Jun-16 08:34N 54°05' E 007°48'2 1.2
2014-Jun-16 07:07N 54°05' E 007°45'0 0.1
2014-Jun-16 06:28N 54°05' E 007°45'0 0.1
2014-Jun-16 05:31N 54°05' E 007°45'0 0.0
2014-Jun-16 04:28N 54°05' E 007°45'0 0.2
2014-Jun-16 03:28N 54°05' E 007°46'0 0.1
2014-Jun-16 02:31N 54°05' E 007°46'0 0.0
2014-Jun-16 01:28N 54°05' E 007°46'0 0.0
2014-Jun-16 00:25N 54°05' E 007°46'0 0.0
2014-Jun-15 23:31N 54°05' E 007°46'0 0.0
2014-Jun-15 22:31N 54°05' E 007°46'0 0.0
2014-Jun-15 21:28N 54°05' E 007°46'0 0.2
2014-Jun-15 20:31N 54°05' E 007°45'0 0.2
2014-Jun-15 19:31N 54°05' E 007°45'0 0.0
2014-Jun-15 18:31N 54°05' E 007°45'0 0.0
2014-Jun-15 17:31N 54°05' E 007°45'0 0.0
2014-Jun-15 16:31N 54°05' E 007°45'0 0.0
2014-Jun-15 15:31N 54°05' E 007°45'0 0.1
2014-Jun-15 14:31N 54°05' E 007°45'0 0.2
2014-Jun-15 13:31N 54°05' E 007°46'0 0.1
2014-Jun-15 12:22N 54°05' E 007°46'0 0.0
2014-Jun-15 11:28N 54°05' E 007°46'0 0.1
2014-Jun-15 10:28N 54°05' E 007°46'3 3.9
2014-Jun-15 09:33N 54°07' E 007°41'10 9.6
2014-Jun-15 08:33N 54°09' E 007°25'1010.0
2014-Jun-15 07:33N 54°09' E 007°08'71 8.7
2014-Jun-14 23:26N 54°03' E 005°07'48 9.0
2014-Jun-14 18:08N 53°36' E 003°59'6 9.3
2014-Jun-14 17:32N 53°33' E 003°52'30 9.4
2014-Jun-14 14:19N 53°07' E 003°27'90 8.3
2014-Jun-14 03:33N 51°44' E 002°31'1111.0
2014-Jun-14 02:31N 51°35' E 002°20'1111.3
2014-Jun-14 01:34N 51°26' E 002°09'1111.1
2014-Jun-14 00:33N 51°19' E 001°56'1211.9
2014-Jun-13 23:33N 51°09' E 001°44'1211.6
2014-Jun-13 22:33N 51°00' E 001°33'1010.0
2014-Jun-13 21:34N 50°51' E 001°25'9 8.9
2014-Jun-13 20:34N 50°43' E 001°20'10 8.8
2014-Jun-13 19:25N 50°36' E 001°09'7 8.6
2014-Jun-13 18:33N 50°31' E 001°00'8 8.4
2014-Jun-13 17:32N 50°28' E 000°48'8 8.1
2014-Jun-13 16:33N 50°26' E 000°36'8 8.0
2014-Jun-13 15:33N 50°23' E 000°24'8 7.8
2014-Jun-13 14:33N 50°20' E 000°13'8 7.9
2014-Jun-13 13:30N 50°18' E 000°00'8 8.3
2014-Jun-13 12:33N 50°16' W 000°12'  

Dump ship's entire track history